sensor_id;sensor_type;location;lat;lon;timestamp;P1;durP1;ratioP1;P2;durP2;ratioP2
64242;SDS011;50573;51.512;5.386;2023-03-02T00:05:03;18.27;;;7.97;;
64242;SDS011;50573;51.512;5.386;2023-03-02T00:15:08;15.43;;;8.32;;
64242;SDS011;50573;51.512;5.386;2023-03-02T00:25:14;14.65;;;7.40;;
64242;SDS011;50573;51.512;5.386;2023-03-02T00:35:17;14.40;;;7.50;;
64242;SDS011;50573;51.512;5.386;2023-03-02T00:45:22;13.38;;;7.60;;
64242;SDS011;50573;51.512;5.386;2023-03-02T00:55:25;17.58;;;7.65;;
64242;SDS011;50573;51.512;5.386;2023-03-02T01:05:29;16.08;;;7.90;;
64242;SDS011;50573;51.512;5.386;2023-03-02T01:15:33;15.30;;;7.65;;
64242;SDS011;50573;51.512;5.386;2023-03-02T01:25:38;12.23;;;7.30;;
64242;SDS011;50573;51.512;5.386;2023-03-02T01:35:43;16.07;;;7.93;;
64242;SDS011;50573;51.512;5.386;2023-03-02T01:45:52;16.25;;;8.90;;
64242;SDS011;50573;51.512;5.386;2023-03-02T01:56:07;17.05;;;9.02;;
64242;SDS011;50573;51.512;5.386;2023-03-02T02:06:13;16.88;;;8.90;;
64242;SDS011;50573;51.512;5.386;2023-03-02T02:16:20;14.75;;;8.35;;
64242;SDS011;50573;51.512;5.386;2023-03-02T02:26:25;12.85;;;8.40;;
64242;SDS011;50573;51.512;5.386;2023-03-02T02:36:37;18.65;;;9.70;;
64242;SDS011;50573;51.512;5.386;2023-03-02T02:46:49;17.50;;;9.93;;
64242;SDS011;50573;51.512;5.386;2023-03-02T02:56:52;22.02;;;11.52;;
64242;SDS011;50573;51.512;5.386;2023-03-02T03:06:59;28.05;;;14.00;;
64242;SDS011;50573;51.512;5.386;2023-03-02T03:17:04;29.60;;;15.40;;
64242;SDS011;50573;51.512;5.386;2023-03-02T03:37:23;58.25;;;25.25;;
64242;SDS011;50573;51.512;5.386;2023-03-02T03:47:27;66.55;;;30.23;;
64242;SDS011;50573;51.512;5.386;2023-03-02T03:57:30;69.68;;;33.08;;
64242;SDS011;50573;51.512;5.386;2023-03-02T04:07:35;76.45;;;34.75;;
64242;SDS011;50573;51.512;5.386;2023-03-02T04:17:39;74.05;;;34.85;;
64242;SDS011;50573;51.512;5.386;2023-03-02T04:27:45;72.68;;;33.53;;
64242;SDS011;50573;51.512;5.386;2023-03-02T04:37:49;71.90;;;34.92;;
64242;SDS011;50573;51.512;5.386;2023-03-02T04:47:53;73.03;;;34.72;;
64242;SDS011;50573;51.512;5.386;2023-03-02T04:57:56;65.63;;;31.60;;
64242;SDS011;50573;51.512;5.386;2023-03-02T05:08:01;61.22;;;29.83;;
64242;SDS011;50573;51.512;5.386;2023-03-02T05:18:04;65.10;;;31.35;;
64242;SDS011;50573;51.512;5.386;2023-03-02T05:28:10;78.65;;;36.03;;
64242;SDS011;50573;51.512;5.386;2023-03-02T05:38:13;87.20;;;37.75;;
64242;SDS011;50573;51.512;5.386;2023-03-02T05:48:18;86.00;;;38.00;;
64242;SDS011;50573;51.512;5.386;2023-03-02T05:58:21;81.70;;;36.42;;
64242;SDS011;50573;51.512;5.386;2023-03-02T06:08:25;93.78;;;40.25;;
64242;SDS011;50573;51.512;5.386;2023-03-02T06:18:29;101.85;;;40.85;;
64242;SDS011;50573;51.512;5.386;2023-03-02T06:28:33;101.53;;;40.03;;
64242;SDS011;50573;51.512;5.386;2023-03-02T06:38:52;100.25;;;41.60;;
64242;SDS011;50573;51.512;5.386;2023-03-02T06:48:56;101.75;;;41.58;;
64242;SDS011;50573;51.512;5.386;2023-03-02T06:58:59;96.38;;;39.42;;
64242;SDS011;50573;51.512;5.386;2023-03-02T07:09:04;93.78;;;37.72;;
64242;SDS011;50573;51.512;5.386;2023-03-02T07:19:09;86.90;;;37.78;;
64242;SDS011;50573;51.512;5.386;2023-03-02T07:29:15;79.57;;;33.92;;
64242;SDS011;50573;51.512;5.386;2023-03-02T07:39:18;86.20;;;36.83;;
64242;SDS011;50573;51.512;5.386;2023-03-02T07:49:23;82.95;;;36.92;;
64242;SDS011;50573;51.512;5.386;2023-03-02T07:59:26;77.85;;;34.33;;
64242;SDS011;50573;51.512;5.386;2023-03-02T08:09:31;70.93;;;31.25;;
64242;SDS011;50573;51.512;5.386;2023-03-02T08:19:34;72.40;;;32.17;;
64242;SDS011;50573;51.512;5.386;2023-03-02T08:29:38;71.13;;;30.00;;
64242;SDS011;50573;51.512;5.386;2023-03-02T08:39:41;59.30;;;28.73;;
64242;SDS011;50573;51.512;5.386;2023-03-02T08:49:46;59.55;;;27.30;;
64242;SDS011;50573;51.512;5.386;2023-03-02T08:59:50;58.55;;;26.92;;
64242;SDS011;50573;51.512;5.386;2023-03-02T09:09:55;53.28;;;23.90;;
64242;SDS011;50573;51.512;5.386;2023-03-02T09:19:58;41.40;;;19.50;;
64242;SDS011;50573;51.512;5.386;2023-03-02T09:30:03;47.63;;;23.17;;
64242;SDS011;50573;51.512;5.386;2023-03-02T09:40:16;43.00;;;21.17;;
64242;SDS011;50573;51.512;5.386;2023-03-02T10:00:34;42.03;;;21.70;;
64242;SDS011;50573;51.512;5.386;2023-03-02T10:10:41;36.33;;;19.02;;
64242;SDS011;50573;51.512;5.386;2023-03-02T10:20:51;35.13;;;18.20;;
64242;SDS011;50573;51.512;5.386;2023-03-02T10:31:06;31.67;;;16.45;;
64242;SDS011;50573;51.512;5.386;2023-03-02T10:41:11;27.00;;;15.57;;
64242;SDS011;50573;51.512;5.386;2023-03-02T10:51:25;28.13;;;14.95;;
64242;SDS011;50573;51.512;5.386;2023-03-02T11:01:29;27.58;;;15.45;;
64242;SDS011;50573;51.512;5.386;2023-03-02T11:11:36;30.60;;;16.17;;
64242;SDS011;50573;51.512;5.386;2023-03-02T11:21:43;33.47;;;17.42;;
64242;SDS011;50573;51.512;5.386;2023-03-02T11:31:54;36.00;;;18.15;;
64242;SDS011;50573;51.512;5.386;2023-03-02T11:42:00;35.25;;;18.63;;
64242;SDS011;50573;51.512;5.386;2023-03-02T11:52:13;32.63;;;18.70;;
64242;SDS011;50573;51.512;5.386;2023-03-02T12:02:20;30.55;;;17.98;;
64242;SDS011;50573;51.512;5.386;2023-03-02T12:33:17;26.23;;;16.00;;
64242;SDS011;50573;51.512;5.386;2023-03-02T12:43:26;30.60;;;16.45;;
64242;SDS011;50573;51.512;5.386;2023-03-02T12:53:33;26.48;;;15.88;;
64242;SDS011;50573;51.512;5.386;2023-03-02T13:03:43;24.92;;;15.13;;
64242;SDS011;50573;51.512;5.386;2023-03-02T13:13:48;20.30;;;12.88;;
64242;SDS011;50573;51.512;5.386;2023-03-02T13:23:52;21.57;;;13.53;;
64242;SDS011;50573;51.512;5.386;2023-03-02T13:33:56;24.67;;;12.85;;
64242;SDS011;50573;51.512;5.386;2023-03-02T13:54:15;21.08;;;12.38;;
64242;SDS011;50573;51.512;5.386;2023-03-02T14:04:22;19.27;;;11.70;;
64242;SDS011;50573;51.512;5.386;2023-03-02T14:14:27;18.38;;;11.00;;
64242;SDS011;50573;51.512;5.386;2023-03-02T14:24:37;18.23;;;11.57;;
64242;SDS011;50573;51.512;5.386;2023-03-02T14:34:41;20.55;;;10.60;;
64242;SDS011;50573;51.512;5.386;2023-03-02T14:44:47;17.90;;;9.93;;
64242;SDS011;50573;51.512;5.386;2023-03-02T14:54:53;15.88;;;10.48;;
64242;SDS011;50573;51.512;5.386;2023-03-02T15:04:59;18.40;;;9.95;;
64242;SDS011;50573;51.512;5.386;2023-03-02T15:15:04;17.60;;;10.73;;
64242;SDS011;50573;51.512;5.386;2023-03-02T15:25:08;16.48;;;10.55;;
64242;SDS011;50573;51.512;5.386;2023-03-02T15:35:13;19.63;;;10.60;;
64242;SDS011;50573;51.512;5.386;2023-03-02T15:45:19;22.30;;;12.70;;
64242;SDS011;50573;51.512;5.386;2023-03-02T15:55:28;22.25;;;13.80;;
64242;SDS011;50573;51.512;5.386;2023-03-02T16:05:34;25.58;;;14.05;;
64242;SDS011;50573;51.512;5.386;2023-03-02T16:15:43;23.75;;;13.57;;
64242;SDS011;50573;51.512;5.386;2023-03-02T16:26:04;23.20;;;13.98;;
64242;SDS011;50573;51.512;5.386;2023-03-02T16:36:09;22.90;;;12.95;;
64242;SDS011;50573;51.512;5.386;2023-03-02T16:46:13;24.55;;;12.38;;
64242;SDS011;50573;51.512;5.386;2023-03-02T16:56:18;21.08;;;13.63;;
64242;SDS011;50573;51.512;5.386;2023-03-02T17:06:24;19.93;;;10.60;;
64242;SDS011;50573;51.512;5.386;2023-03-02T17:16:38;24.75;;;13.02;;
64242;SDS011;50573;51.512;5.386;2023-03-02T17:26:42;23.90;;;14.27;;
64242;SDS011;50573;51.512;5.386;2023-03-02T17:36:48;24.23;;;13.57;;
64242;SDS011;50573;51.512;5.386;2023-03-02T17:46:51;18.93;;;10.70;;
64242;SDS011;50573;51.512;5.386;2023-03-02T17:56:56;30.00;;;15.85;;
64242;SDS011;50573;51.512;5.386;2023-03-02T18:06:59;22.97;;;14.33;;
64242;SDS011;50573;51.512;5.386;2023-03-02T18:17:03;27.15;;;15.40;;
64242;SDS011;50573;51.512;5.386;2023-03-02T18:27:08;27.98;;;15.75;;
64242;SDS011;50573;51.512;5.386;2023-03-02T18:37:13;29.20;;;15.65;;
64242;SDS011;50573;51.512;5.386;2023-03-02T18:47:16;24.27;;;13.60;;
64242;SDS011;50573;51.512;5.386;2023-03-02T18:57:20;28.58;;;16.60;;
64242;SDS011;50573;51.512;5.386;2023-03-02T19:07:23;32.47;;;18.73;;
64242;SDS011;50573;51.512;5.386;2023-03-02T19:17:28;36.70;;;19.05;;
64242;SDS011;50573;51.512;5.386;2023-03-02T19:27:31;32.70;;;19.97;;
64242;SDS011;50573;51.512;5.386;2023-03-02T19:37:36;34.38;;;20.17;;
64242;SDS011;50573;51.512;5.386;2023-03-02T19:47:39;29.00;;;16.10;;
64242;SDS011;50573;51.512;5.386;2023-03-02T19:57:43;37.47;;;21.88;;
64242;SDS011;50573;51.512;5.386;2023-03-02T20:07:51;41.13;;;22.33;;
64242;SDS011;50573;51.512;5.386;2023-03-02T20:17:56;50.72;;;25.88;;
64242;SDS011;50573;51.512;5.386;2023-03-02T20:28:03;45.78;;;26.35;;
64242;SDS011;50573;51.512;5.386;2023-03-02T20:38:14;44.40;;;23.75;;
64242;SDS011;50573;51.512;5.386;2023-03-02T20:48:20;42.53;;;23.52;;
64242;SDS011;50573;51.512;5.386;2023-03-02T20:58:25;46.88;;;23.75;;
64242;SDS011;50573;51.512;5.386;2023-03-02T21:08:28;43.07;;;23.30;;
64242;SDS011;50573;51.512;5.386;2023-03-02T21:18:35;41.42;;;22.83;;
64242;SDS011;50573;51.512;5.386;2023-03-02T21:28:39;40.33;;;23.57;;
64242;SDS011;50573;51.512;5.386;2023-03-02T21:38:45;43.78;;;23.60;;
64242;SDS011;50573;51.512;5.386;2023-03-02T21:48:49;47.90;;;25.37;;
64242;SDS011;50573;51.512;5.386;2023-03-02T21:58:55;46.20;;;23.87;;
64242;SDS011;50573;51.512;5.386;2023-03-02T22:08:59;51.78;;;26.98;;
64242;SDS011;50573;51.512;5.386;2023-03-02T22:19:04;53.47;;;28.83;;
64242;SDS011;50573;51.512;5.386;2023-03-02T22:29:21;59.20;;;30.20;;
64242;SDS011;50573;51.512;5.386;2023-03-02T22:39:27;65.80;;;31.25;;
64242;SDS011;50573;51.512;5.386;2023-03-02T22:49:34;65.63;;;34.28;;
64242;SDS011;50573;51.512;5.386;2023-03-02T22:59:38;65.53;;;33.28;;
64242;SDS011;50573;51.512;5.386;2023-03-02T23:09:41;68.17;;;33.60;;
64242;SDS011;50573;51.512;5.386;2023-03-02T23:19:46;72.88;;;34.65;;
64242;SDS011;50573;51.512;5.386;2023-03-02T23:29:51;74.93;;;35.92;;
64242;SDS011;50573;51.512;5.386;2023-03-02T23:39:55;67.78;;;33.15;;
64242;SDS011;50573;51.512;5.386;2023-03-02T23:49:59;65.37;;;29.13;;
